Friday, May 25, 2018, 4:55 PM GMT
Back to Local

CWRN, Hart Island Meteorological Aeronautical Presentation System

Location: , , Canada Lat: 45.35
Local Time: 4:55 PM GMT (16:55 GMT) Lon: -60.983
Time Zone: GMT Elev: 13 ft

Show me the last for .
Show Coded

Time T Td Feel RH Dir Speed Gust Alt SLP Vis Weather Sky Remarks
2018-05-25 16:00 49 44 39 85 220° 28 39 - 29.65 0 Peak wind: 41 mph (36 kts) from 210° at 04 min
2018-05-25 15:00 46 44 35 94 210° 29 39 - 29.69 0 Peak wind: 39 mph (34 kts) from 200° at 48 min
2018-05-25 14:00 45 43 35 91 200° 24 31 - 29.73 0 Peak wind: 35 mph (31 kts) from 190° at 16 min
Pressure falling rapidly
2018-05-25 13:00 44 42 34 91 200° 25 33 - 29.79 0 Peak wind: 42 mph (37 kts) from 210° at 31 min
2018-05-25 12:00 44 41 33 88 210° 25 36 - 29.82 0 Peak wind: 39 mph (34 kts) from 200° at 30 min
2018-05-25 11:00 43 40 32 89 200° 22 31 - 29.85 0 Peak wind: 33 mph (29 kts) from 210° at 02 min
2018-05-25 10:00 43 38 33 83 200° 21 26 - 29.89 0 Peak wind: 27 mph (24 kts) from 200° at 46 min
2018-05-25 09:00 43 40 33 90 210° 18 25 - 29.92 0 Peak wind: 28 mph (25 kts) from 200° at 42 min
2018-05-25 08:00 43 38 34 83 220° 17 24 - 29.94 0 Peak wind: 29 mph (26 kts) from 210° at 18 min
2018-05-25 07:00 44 39 34 81 210° 18 28 - 29.96 0 Peak wind: 27 mph (24 kts) from 210° at 52 min
2018-05-25 06:00 44 38 35 80 200° 18 24 - 29.97 0 Peak wind: 26 mph (23 kts) from 210° at 45 min
2018-05-25 05:00 44 37 34 78 200° 18 24 - 30.00 0 Peak wind: 24 mph (21 kts) from 200° at 57 min
2018-05-25 04:00 43 36 36 76 180° 14 - - 30.02 0 Peak wind: 19 mph (17 kts) from 190° at 15 min
2018-05-25 03:00 42 34 35 72 200° 14 - - 30.03 0 None
2018-05-25 02:00 40 32 34 71 190° 9 - - 30.06 0 None
2018-05-25 01:00 41 33 36 72 220° 8 - - 30.07 0 None
2018-05-25 00:00 43 32 38 64 290° 9 - - 30.07 0 None
2018-05-24 23:00 45 32 38 59 300° 15 - - 30.05 0 Peak wind: 20 mph (18 kts) from 300° at 20 min
2018-05-24 22:00 47 32 40 55 300° 18 - - 30.03 0 Peak wind: 24 mph (21 kts) from 290° at 23 min
2018-05-24 21:00 48 31 42 50 300° 18 - - 30.02 0 Peak wind: 25 mph (22 kts) from 300° at 04 min
2018-05-24 20:00 48 33 40 55 300° 22 - - 30.01 0 Peak wind: 26 mph (23 kts) from 300° at 40 min
2018-05-24 19:00 48 32 41 52 300° 21 - - 30.00 0 Peak wind: 26 mph (23 kts) from 300° at 20 min
2018-05-24 18:00 49 35 42 58 310° 20 26 - 30.00 0 Peak wind: 26 mph (23 kts) from 310° at 51 min
2018-05-24 17:00 48 35 40 58 310° 21 28 - 30.00 0 Peak wind: 27 mph (24 kts) from 300° at 57 min

Support USWX by starting your Amazon purchase here.